Time;durP1;ratioP1;P1;durP2;ratioP2;P2;SDS_P1;SDS_P2;PMS_P1;PMS_P2;Temp;Humidity;BMP_temperature;BMP_pressure;BME280_temperature;BME280_humidity;BME280_pressure;Samples;Min_cycle;Max_cycle;Signal;HPM_P1;HPM_P2
2020/12/08 09:33:19;;;;;;;12.03;5.27;;;5.00;99.90;;;;;;3257316;26;20312;-72
2020/12/08 09:35:45;;;;;;;8.77;4.20;;;5.10;99.90;;;;;;5013639;28;20228;-72
2020/12/08 09:38:12;;;;;;;11.53;4.50;;;5.10;99.90;;;;;;5013296;28;20206;-73
2020/12/08 09:40:41;;;;;;;9.80;4.43;;;5.10;99.90;;;;;;5013043;28;20656;-78
2020/12/08 09:43:07;;;;;;;9.07;4.50;;;5.20;99.90;;;;;;5012663;28;20236;-77
2020/12/08 09:45:36;;;;;;;10.53;4.13;;;5.10;99.90;;;;;;5009343;28;20210;-69
2020/12/08 09:48:03;;;;;;;12.50;4.67;;;5.00;99.90;;;;;;5011096;28;20210;-70
2020/12/08 09:50:30;;;;;;;7.87;4.57;;;5.10;99.90;;;;;;5011004;28;20205;-69
2020/12/08 09:52:57;;;;;;;8.37;3.93;;;5.10;99.90;;;;;;5007374;28;20210;-69
2020/12/08 09:55:23;;;;;;;10.10;3.77;;;5.20;99.90;;;;;;5003188;28;20564;-73
2020/12/08 09:57:49;;;;;;;12.47;4.33;;;5.20;99.90;;;;;;5011234;28;20235;-71
2020/12/08 10:00:16;;;;;;;8.10;4.20;;;5.30;99.90;;;;;;5011207;28;20238;-72
2020/12/08 10:02:42;;;;;;;8.50;3.90;;;5.30;99.90;;;;;;5008583;28;20217;-73
2020/12/08 10:05:08;;;;;;;8.17;4.23;;;5.40;99.90;;;;;;5008257;28;20210;-75
2020/12/08 10:07:35;;;;;;;10.43;4.70;;;5.50;99.90;;;;;;5000802;28;20217;-72
2020/12/08 10:10:02;;;;;;;11.53;4.57;;;5.70;99.90;;;;;;5010757;28;20233;-72
2020/12/08 10:12:28;;;;;;;8.90;3.57;;;5.70;99.90;;;;;;5010577;28;20217;-74
2020/12/08 10:14:55;;;;;;;12.73;4.50;;;5.80;99.90;;;;;;5005404;28;20770;-73
2020/12/08 10:17:21;;;;;;;11.23;4.67;;;6.00;99.90;;;;;;5010617;28;20206;-71
2020/12/08 10:19:48;;;;;;;9.50;4.90;;;6.10;99.90;;;;;;5010944;28;20252;-72
2020/12/08 10:22:14;;;;;;;9.60;4.90;;;6.00;99.90;;;;;;5002420;28;20207;-74
2020/12/08 10:24:41;;;;;;;16.13;5.27;;;5.60;99.90;;;;;;4998720;28;20214;-73
2020/12/08 10:27:08;;;;;;;7.40;4.17;;;5.10;99.90;;;;;;4991469;28;20213;-73
2020/12/08 10:29:34;;;;;;;8.90;4.50;;;4.70;99.90;;;;;;4991429;28;20230;-79
2020/12/08 10:32:01;;;;;;;8.83;4.40;;;4.40;99.90;;;;;;4990972;28;20236;-69
2020/12/08 10:34:27;;;;;;;11.87;4.53;;;4.40;99.90;;;;;;4993646;28;20246;-73
2020/12/08 10:36:53;;;;;;;9.20;4.73;;;4.50;99.90;;;;;;5011718;28;20210;-67
2020/12/08 10:39:20;;;;;;;8.17;4.33;;;4.90;99.90;;;;;;5001359;28;20245;-68
2020/12/08 10:41:47;;;;;;;9.57;4.43;;;5.30;99.90;;;;;;5009558;28;20206;-70
2020/12/08 10:44:16;;;;;;;9.83;3.70;;;5.40;99.90;;;;;;5009837;28;20206;-68
2020/12/08 10:46:42;;;;;;;8.00;4.33;;;5.60;99.90;;;;;;4998851;28;20213;-68
2020/12/08 10:49:08;;;;;;;7.80;4.10;;;5.80;99.90;;;;;;4991288;28;20230;-68
2020/12/08 10:51:34;;;;;;;7.20;3.77;;;6.00;99.90;;;;;;4990742;28;20248;-67
2020/12/08 10:54:02;;;;;;;8.43;4.23;;;6.20;99.90;;;;;;4990892;28;20238;-66
2020/12/08 10:56:29;;;;;;;8.80;4.20;;;6.40;99.90;;;;;;4996516;28;20213;-69
2020/12/08 10:58:56;;;;;;;9.07;4.17;;;6.50;99.90;;;;;;5010617;28;20232;-69
2020/12/08 11:01:23;;;;;;;7.17;4.17;;;6.60;99.90;;;;;;5010245;28;20210;-68
2020/12/08 11:03:50;;;;;;;8.83;4.60;;;6.70;99.90;;;;;;4993976;28;20607;-68
2020/12/08 11:06:21;;;;;;;8.37;3.80;;;6.70;99.90;;;;;;4991235;28;20238;-67
2020/12/08 11:08:48;;;;;;;8.17;4.00;;;6.80;99.90;;;;;;4990822;28;20316;-69
2020/12/08 11:11:14;;;;;;;8.77;4.27;;;6.80;99.90;;;;;;4987382;28;20211;-67
2020/12/08 11:13:41;;;;;;;9.97;4.33;;;6.90;99.90;;;;;;4990327;28;20234;-69
2020/12/08 11:16:08;;;;;;;6.80;3.83;;;6.80;99.90;;;;;;4993036;28;20332;-67
2020/12/08 11:18:34;;;;;;;8.70;4.20;;;6.80;99.90;;;;;;5010043;28;20589;-68
2020/12/08 11:21:01;;;;;;;7.83;4.27;;;6.60;99.90;;;;;;5010307;28;20217;-68
2020/12/08 11:23:27;;;;;;;9.07;4.20;;;6.20;99.90;;;;;;5011080;28;20599;-68
2020/12/08 11:25:54;;;;;;;7.13;4.07;;;6.10;99.90;;;;;;4993533;28;20214;-69
2020/12/08 11:28:20;;;;;;;7.73;4.07;;;6.30;99.90;;;;;;4991519;28;20226;-69
2020/12/08 11:30:46;;;;;;;10.83;5.00;;;6.50;99.90;;;;;;4995494;28;20561;-68
2020/12/08 11:33:13;;;;;;;9.47;4.17;;;6.80;99.90;;;;;;4994664;28;20234;-71
2020/12/08 11:35:39;;;;;;;9.23;4.40;;;6.80;99.90;;;;;;4995235;28;20218;-69
2020/12/08 11:38:06;;;;;;;6.43;4.10;;;7.00;99.90;;;;;;4994405;28;20218;-67
2020/12/08 11:40:32;;;;;;;5.87;3.27;;;6.90;99.90;;;;;;4994242;28;20210;-66
2020/12/08 11:42:58;;;;;;;7.43;3.90;;;7.00;99.90;;;;;;4994941;28;20210;-66
2020/12/08 11:45:24;;;;;;;6.43;3.50;;;6.70;99.90;;;;;;4994767;28;20210;-67
2020/12/08 11:47:51;;;;;;;8.50;3.90;;;6.90;99.90;;;;;;4993063;28;20209;-67
2020/12/08 11:50:18;;;;;;;9.63;4.20;;;7.10;99.90;;;;;;5006842;28;20230;-68
2020/12/08 11:52:44;;;;;;;9.47;4.57;;;7.30;99.90;;;;;;5008283;28;20213;-66
2020/12/08 11:55:10;;;;;;;12.90;5.00;;;7.50;99.90;;;;;;5013895;28;20237;-71
2020/12/08 11:57:36;;;;;;;8.90;4.77;;;7.30;99.90;;;;;;5010381;28;20210;-68
2020/12/08 12:00:05;;;;;;;9.03;4.30;;;7.30;99.90;;;;;;4991933;28;20241;-68
2020/12/08 12:02:31;;;;;;;7.57;4.80;;;7.40;99.90;;;;;;4991481;28;20206;-69
2020/12/08 12:04:58;;;;;;;9.93;4.87;;;7.30;99.90;;;;;;4994356;28;20213;-70
2020/12/08 12:07:25;;;;;;;10.37;4.03;;;7.30;99.90;;;;;;4994319;28;20203;-72
2020/12/08 12:09:51;;;;;;;9.90;5.20;;;7.30;99.90;;;;;;4994504;28;20227;-70
2020/12/08 12:12:20;;;;;;;8.87;4.70;;;7.40;99.90;;;;;;4995245;28;20207;-71
2020/12/08 12:14:46;;;;;;;10.57;5.20;;;7.20;99.90;;;;;;4995249;28;20242;-71
2020/12/08 12:17:13;;;;;;;13.57;5.47;;;7.20;99.90;;;;;;4995005;28;20665;-70
2020/12/08 12:19:39;;;;;;;11.43;5.53;;;7.10;99.90;;;;;;5005411;28;20692;-71
2020/12/08 12:22:05;;;;;;;11.87;5.07;;;7.10;99.90;;;;;;5013953;28;20213;-71
2020/12/08 12:24:32;;;;;;;8.53;4.73;;;7.00;99.90;;;;;;5014916;28;20214;-70
2020/12/08 12:26:58;;;;;;;8.47;4.93;;;7.10;99.90;;;;;;5014803;28;20293;-69
2020/12/08 12:29:25;;;;;;;9.23;4.37;;;7.10;99.90;;;;;;5008888;28;20241;-70
2020/12/08 12:31:51;;;;;;;12.50;4.63;;;7.20;99.90;;;;;;5014335;28;20212;-71
2020/12/08 12:34:18;;;;;;;9.13;5.17;;;7.20;99.90;;;;;;4995208;28;20239;-70
2020/12/08 12:36:47;;;;;;;9.10;4.87;;;7.30;99.90;;;;;;4994825;28;20229;-69
2020/12/08 12:39:14;;;;;;;9.13;4.70;;;7.30;99.90;;;;;;4994618;28;20241;-70
2020/12/08 12:41:41;;;;;;;9.97;5.20;;;7.40;99.90;;;;;;4994052;28;20669;-69
2020/12/08 12:44:08;;;;;;;10.70;4.10;;;7.40;99.90;;;;;;4994714;28;20207;-69
2020/12/08 12:46:34;;;;;;;10.30;4.67;;;7.40;99.90;;;;;;4994350;28;20207;-70
2020/12/08 12:49:01;;;;;;;7.90;4.17;;;7.50;99.90;;;;;;4994354;28;20222;-70
2020/12/08 12:51:27;;;;;;;8.13;4.40;;;7.50;99.90;;;;;;4994353;28;20218;-69
2020/12/08 12:53:54;;;;;;;8.27;4.00;;;7.40;99.90;;;;;;5008798;28;20232;-68
2020/12/08 12:56:22;;;;;;;6.60;3.40;;;7.40;99.90;;;;;;5013606;28;20210;-70
2020/12/08 12:58:50;;;;;;;7.13;3.73;;;7.40;99.90;;;;;;5013872;28;20232;-70
2020/12/08 13:01:16;;;;;;;6.63;3.40;;;7.50;99.90;;;;;;4998232;28;20217;-70
2020/12/08 13:03:43;;;;;;;8.50;4.20;;;7.50;99.90;;;;;;4992043;28;20233;-68
2020/12/08 13:06:10;;;;;;;7.00;3.87;;;7.50;99.90;;;;;;4999850;28;20213;-69
2020/12/08 13:08:36;;;;;;;8.03;4.10;;;7.30;99.90;;;;;;5012329;28;20234;-73
2020/12/08 13:11:03;;;;;;;11.63;4.57;;;6.90;99.90;;;;;;5012424;28;20213;-70
2020/12/08 13:13:29;;;;;;;7.20;4.10;;;6.90;99.90;;;;;;5013175;28;20226;-72
2020/12/08 13:15:56;;;;;;;7.80;3.30;;;7.00;99.90;;;;;;5032801;28;20220;-69
2020/12/08 13:18:23;;;;;;;9.10;4.57;;;6.90;99.90;;;;;;5013506;28;20229;-69
2020/12/08 13:20:49;;;;;;;7.43;4.10;;;7.00;99.90;;;;;;5001763;28;20205;-70
2020/12/08 13:23:15;;;;;;;6.73;4.00;;;7.00;99.90;;;;;;5012723;28;20293;-75
2020/12/08 13:25:42;;;;;;;8.07;4.10;;;7.20;99.90;;;;;;5015948;28;20213;-69
2020/12/08 13:28:08;;;;;;;8.67;4.20;;;7.20;99.90;;;;;;5018357;28;20201;-74
2020/12/08 13:30:34;;;;;;;7.07;3.73;;;7.20;99.90;;;;;;5006822;28;20210;-74
2020/12/08 13:33:01;;;;;;;7.40;3.73;;;7.20;99.90;;;;;;4993656;28;20214;-72
2020/12/08 13:35:27;;;;;;;7.73;3.83;;;7.20;99.90;;;;;;4993784;28;20709;-67
2020/12/08 13:37:54;;;;;;;8.70;4.23;;;6.90;99.90;;;;;;4993495;28;20999;-66
2020/12/08 13:40:20;;;;;;;6.90;3.27;;;7.00;99.90;;;;;;4993338;28;20216;-71
2020/12/08 13:42:47;;;;;;;9.17;3.90;;;7.10;99.90;;;;;;4993645;28;20215;-69
2020/12/08 13:45:13;;;;;;;7.10;4.00;;;7.30;99.90;;;;;;4993100;28;20562;-68
2020/12/08 13:47:40;;;;;;;8.60;4.20;;;7.30;99.90;;;;;;5006326;28;20212;-67
2020/12/08 13:50:07;;;;;;;10.00;4.50;;;7.30;99.90;;;;;;5012942;28;20573;-69
2020/12/08 13:52:33;;;;;;;8.00;3.90;;;7.30;99.90;;;;;;5009655;28;20433;-72
2020/12/08 13:54:59;;;;;;;8.10;3.53;;;7.30;99.90;;;;;;5012436;28;20249;-69
2020/12/08 13:57:26;;;;;;;8.70;3.67;;;7.10;99.90;;;;;;5011068;28;20206;-71
2020/12/08 13:59:52;;;;;;;7.20;4.07;;;7.20;99.90;;;;;;5010266;28;20238;-67
2020/12/08 14:02:18;;;;;;;7.57;3.87;;;7.10;99.90;;;;;;5006537;28;20212;-66
2020/12/08 14:04:45;;;;;;;7.27;3.70;;;7.00;99.90;;;;;;5003235;28;20229;-67
2020/12/08 14:07:12;;;;;;;8.53;4.47;;;6.80;99.90;;;;;;5004949;28;20599;-68
2020/12/08 14:09:38;;;;;;;8.10;3.50;;;6.90;99.90;;;;;;5010040;28;20229;-65
2020/12/08 14:12:04;;;;;;;7.30;3.57;;;7.00;99.90;;;;;;5011202;28;20561;-77
2020/12/08 14:14:31;;;;;;;9.30;4.17;;;7.00;99.90;;;;;;4993721;28;20234;-77
2020/12/08 14:16:58;;;;;;;7.50;4.07;;;6.80;99.90;;;;;;5008340;28;20208;-76
2020/12/08 14:19:24;;;;;;;6.97;3.80;;;6.80;99.90;;;;;;5033332;28;20225;-71
2020/12/08 14:21:50;;;;;;;8.00;4.07;;;6.70;99.90;;;;;;5032958;28;20562;-75
2020/12/08 14:24:20;;;;;;;8.10;4.70;;;6.70;99.90;;;;;;4995306;28;20206;-75
2020/12/08 14:26:46;;;;;;;8.40;4.70;;;6.80;99.90;;;;;;4993915;28;20253;-70
2020/12/08 14:29:13;;;;;;;10.13;4.50;;;6.80;99.90;;;;;;4993467;28;20226;-74
2020/12/08 14:31:39;;;;;;;10.23;4.13;;;6.80;99.90;;;;;;4993746;28;20206;-74
2020/12/08 14:34:06;;;;;;;9.40;4.17;;;6.70;99.90;;;;;;4993012;28;20234;-75
2020/12/08 14:36:33;;;;;;;9.80;4.57;;;6.60;99.90;;;;;;4993702;28;20206;-75
2020/12/08 14:38:59;;;;;;;10.23;4.30;;;6.60;99.90;;;;;;4993288;28;20234;-74
2020/12/08 14:41:26;;;;;;;9.03;4.10;;;6.50;99.90;;;;;;4993637;28;20213;-77
2020/12/08 14:43:53;;;;;;;9.30;3.87;;;6.50;99.90;;;;;;5022936;28;20679;-74
2020/12/08 14:46:19;;;;;;;7.57;4.00;;;6.40;99.90;;;;;;5032505;28;20212;-76
2020/12/08 14:48:46;;;;;;;9.63;4.30;;;6.30;99.90;;;;;;5032353;28;20774;-85
2020/12/08 14:51:15;;;;;;;9.23;4.33;;;6.30;99.90;;;;;;4997517;28;20209;-77
2020/12/08 14:53:41;;;;;;;6.63;3.70;;;6.40;99.90;;;;;;4993309;28;20253;-81
2020/12/08 14:56:07;;;;;;;7.57;3.80;;;6.30;99.90;;;;;;4993601;28;20214;-77
2020/12/08 14:58:34;;;;;;;7.13;3.43;;;6.30;99.90;;;;;;4993674;28;20230;-73
2020/12/08 15:01:00;;;;;;;7.37;4.33;;;6.40;99.90;;;;;;4993584;28;20233;-77
2020/12/08 15:03:26;;;;;;;11.07;3.90;;;6.40;99.90;;;;;;4992641;28;20633;-76
2020/12/08 15:05:53;;;;;;;6.97;3.87;;;6.30;99.90;;;;;;4993332;28;20213;-73
2020/12/08 15:08:19;;;;;;;8.23;4.37;;;6.40;99.90;;;;;;4993428;28;20229;-70
2020/12/08 15:10:45;;;;;;;12.03;3.93;;;6.30;99.90;;;;;;4993114;28;20221;-86
2020/12/08 15:13:11;;;;;;;6.37;3.90;;;6.20;99.90;;;;;;4993093;28;20672;-74
2020/12/08 15:15:38;;;;;;;9.07;3.80;;;6.20;99.90;;;;;;4995246;28;20234;-73
2020/12/08 15:18:04;;;;;;;9.93;3.57;;;6.20;99.90;;;;;;5000375;28;20209;-70
2020/12/08 15:20:31;;;;;;;8.47;4.03;;;6.20;99.90;;;;;;5000511;28;20202;-71
2020/12/08 15:22:57;;;;;;;7.57;4.33;;;6.10;99.90;;;;;;4997881;28;20203;-72
2020/12/08 15:25:24;;;;;;;11.63;4.03;;;6.00;99.90;;;;;;4999445;28;20209;-76
2020/12/08 15:27:50;;;;;;;8.97;4.13;;;5.80;99.90;;;;;;5011185;28;20240;-73
2020/12/08 15:30:18;;;;;;;9.37;4.00;;;5.60;99.90;;;;;;5002777;28;20236;-78
2020/12/08 15:32:45;;;;;;;7.77;4.17;;;5.60;99.90;;;;;;5004739;28;20217;-74
2020/12/08 15:35:12;;;;;;;8.60;3.77;;;5.40;99.90;;;;;;5001426;28;20222;-77
2020/12/08 15:37:38;;;;;;;9.87;4.30;;;5.20;99.90;;;;;;5001902;28;20206;-74
2020/12/08 15:40:05;;;;;;;8.17;4.27;;;5.10;99.90;;;;;;5004017;28;20226;-76
2020/12/08 15:42:31;;;;;;;6.90;3.63;;;5.10;99.90;;;;;;4996590;28;20203;-74
2020/12/08 15:44:58;;;;;;;8.13;3.70;;;5.00;99.90;;;;;;4991551;28;20218;-77
2020/12/08 15:47:24;;;;;;;10.37;4.03;;;4.90;99.90;;;;;;4997003;28;20211;-71
2020/12/08 15:50:04;;;;;;;8.13;4.20;;;4.80;99.90;;;;;;4997746;28;20236;-77
2020/12/08 15:52:31;;;;;;;9.57;4.10;;;4.60;99.90;;;;;;4994686;28;20205;-76
2020/12/08 15:54:57;;;;;;;9.73;4.03;;;4.40;99.90;;;;;;4994629;28;20253;-77
2020/12/08 15:57:23;;;;;;;17.93;3.97;;;4.30;99.90;;;;;;4992640;28;20542;-77
2020/12/08 15:59:49;;;;;;;6.77;3.80;;;4.30;99.90;;;;;;4992846;28;20237;-77
2020/12/08 16:02:15;;;;;;;11.00;4.30;;;4.20;99.90;;;;;;4992390;28;20206;-77
2020/12/08 16:04:42;;;;;;;7.83;4.10;;;4.10;99.90;;;;;;4989973;28;20221;-76
2020/12/08 16:07:09;;;;;;;10.03;4.73;;;4.20;99.90;;;;;;4992303;28;20213;-78
2020/12/08 16:09:35;;;;;;;13.77;4.30;;;4.10;99.90;;;;;;4990930;28;20585;-75
2020/12/08 16:12:01;;;;;;;13.73;4.30;;;4.00;99.90;;;;;;4992890;28;20214;-75
2020/12/08 16:14:27;;;;;;;12.23;4.67;;;4.00;99.90;;;;;;4992715;28;20280;-76
2020/12/08 16:16:54;;;;;;;7.00;4.10;;;3.90;99.90;;;;;;4995651;28;20210;-76
2020/12/08 16:19:20;;;;;;;6.53;3.77;;;3.70;99.90;;;;;;4996610;28;20226;-77
2020/12/08 16:21:46;;;;;;;8.13;4.43;;;3.70;99.90;;;;;;4996023;28;20217;-76
2020/12/08 16:24:13;;;;;;;10.70;4.63;;;3.80;99.90;;;;;;4995832;28;20214;-76
2020/12/08 16:26:39;;;;;;;10.17;4.33;;;3.70;99.90;;;;;;4996362;28;20557;-74
2020/12/08 16:29:05;;;;;;;10.93;5.30;;;3.70;99.90;;;;;;5011955;28;20229;-77
2020/12/08 16:31:32;;;;;;;13.93;4.93;;;3.50;99.90;;;;;;5015549;28;20206;-77
2020/12/08 16:33:58;;;;;;;8.30;4.70;;;3.30;99.90;;;;;;5015075;28;20229;-74
2020/12/08 16:36:24;;;;;;;8.93;5.00;;;3.30;99.90;;;;;;5013718;28;20214;-77
2020/12/08 16:38:50;;;;;;;11.47;4.93;;;3.20;99.90;;;;;;5015622;28;20233;-76
2020/12/08 16:41:17;;;;;;;9.87;4.97;;;3.10;99.90;;;;;;5015800;28;20213;-77
2020/12/08 16:43:44;;;;;;;13.57;5.07;;;3.10;99.90;;;;;;5000804;28;20665;-76
2020/12/08 16:46:10;;;;;;;11.90;5.07;;;3.10;99.90;;;;;;4995707;28;20214;-73
2020/12/08 16:48:36;;;;;;;13.03;4.80;;;3.10;99.90;;;;;;4995644;28;20226;-74
2020/12/08 16:51:02;;;;;;;9.90;4.90;;;3.00;99.90;;;;;;4996032;28;20229;-76
2020/12/08 16:53:28;;;;;;;10.47;5.27;;;3.00;99.90;;;;;;4995573;28;20211;-75
2020/12/08 16:55:55;;;;;;;10.67;6.07;;;3.10;99.90;;;;;;4996458;28;20245;-73
2020/12/08 16:58:23;;;;;;;15.30;6.13;;;2.90;99.90;;;;;;4995850;28;20558;-74
2020/12/08 17:00:49;;;;;;;9.30;5.13;;;2.80;99.90;;;;;;4995460;28;20550;-75
2020/12/08 17:03:18;;;;;;;13.10;5.40;;;2.70;99.90;;;;;;4995610;28;20257;-76
2020/12/08 17:05:44;;;;;;;14.30;6.23;;;2.70;99.90;;;;;;4995732;28;20229;-77
2020/12/08 17:08:11;;;;;;;15.20;5.33;;;2.80;99.90;;;;;;4995416;28;20217;-76
2020/12/08 17:10:37;;;;;;;14.00;6.77;;;2.80;99.90;;;;;;4995606;28;20233;-76
2020/12/08 17:13:03;;;;;;;11.07;5.77;;;2.80;99.90;;;;;;4995604;28;20211;-77
2020/12/08 17:15:30;;;;;;;15.27;6.20;;;2.80;99.90;;;;;;4995341;28;20240;-78
2020/12/08 17:17:56;;;;;;;13.67;6.37;;;2.70;99.90;;;;;;4995431;28;20206;-74
2020/12/08 17:20:22;;;;;;;11.60;6.10;;;2.70;99.90;;;;;;4994944;28;20210;-73
2020/12/08 17:22:49;;;;;;;16.43;6.10;;;2.60;99.90;;;;;;4994894;28;20210;-76
2020/12/08 17:25:16;;;;;;;19.63;5.93;;;2.50;99.90;;;;;;4995573;28;20214;-75
2020/12/08 17:27:43;;;;;;;15.80;7.37;;;2.50;99.90;;;;;;4994629;28;20210;-76
2020/12/08 17:30:11;;;;;;;18.10;7.57;;;2.50;99.90;;;;;;4995159;28;20229;-74
2020/12/08 17:32:38;;;;;;;14.00;6.87;;;2.50;99.90;;;;;;4994478;28;20229;-74
2020/12/08 17:35:05;;;;;;;15.17;7.50;;;2.50;99.90;;;;;;4995019;28;20241;-75
2020/12/08 17:37:31;;;;;;;17.03;7.03;;;2.50;99.90;;;;;;4994890;28;20213;-76
2020/12/08 17:39:58;;;;;;;20.87;7.40;;;2.40;99.90;;;;;;4994978;28;20743;-75
2020/12/08 17:42:24;;;;;;;14.40;7.10;;;2.40;99.90;;;;;;4994689;28;20210;-75
2020/12/08 17:44:51;;;;;;;17.87;8.10;;;2.30;99.90;;;;;;4994517;28;20202;-74
2020/12/08 17:47:17;;;;;;;13.83;7.67;;;2.20;99.90;;;;;;4995171;28;20218;-77
2020/12/08 17:49:44;;;;;;;17.93;7.63;;;2.10;99.90;;;;;;4994614;28;20654;-77
2020/12/08 17:52:13;;;;;;;17.57;8.03;;;2.10;99.90;;;;;;4994568;28;20202;-75
2020/12/08 17:54:40;;;;;;;18.70;8.67;;;2.10;99.90;;;;;;4994694;28;20230;-77
2020/12/08 17:57:06;;;;;;;20.30;9.33;;;2.00;99.90;;;;;;4994581;28;20203;-75
2020/12/08 17:59:32;;;;;;;20.00;9.17;;;2.00;99.90;;;;;;4993826;28;20226;-78
2020/12/08 18:01:58;;;;;;;19.20;9.30;;;2.10;99.90;;;;;;4994596;28;20215;-74
2020/12/08 18:04:25;;;;;;;18.57;8.57;;;2.10;99.90;;;;;;4994591;28;20229;-76
2020/12/08 18:06:54;;;;;;;16.33;8.20;;;2.20;99.90;;;;;;4994506;28;20210;-78
2020/12/08 18:09:21;;;;;;;15.37;7.77;;;2.20;99.90;;;;;;4994277;28;20237;-75
2020/12/08 18:11:47;;;;;;;18.67;7.83;;;2.20;99.90;;;;;;4994309;28;20661;-76
2020/12/08 18:14:13;;;;;;;16.10;8.30;;;2.20;99.90;;;;;;4994268;28;20700;-76
2020/12/08 18:16:39;;;;;;;17.30;8.43;;;2.10;99.90;;;;;;4994582;28;20231;-75
2020/12/08 18:19:05;;;;;;;16.17;8.37;;;1.90;99.90;;;;;;4994304;28;20222;-74
2020/12/08 18:21:32;;;;;;;17.60;8.10;;;1.80;99.90;;;;;;4994202;28;20213;-74
2020/12/08 18:23:59;;;;;;;17.83;8.63;;;1.80;99.90;;;;;;4994003;28;20570;-75
2020/12/08 18:26:25;;;;;;;25.27;10.63;;;1.80;99.90;;;;;;4996749;28;20539;-70
2020/12/08 18:28:51;;;;;;;25.97;9.80;;;1.90;99.90;;;;;;4993335;28;20740;-70
2020/12/08 18:31:18;;;;;;;17.43;8.30;;;1.80;99.90;;;;;;4992839;28;20214;-69
2020/12/08 18:33:45;;;;;;;22.17;9.13;;;1.90;99.90;;;;;;4993977;28;20558;-70
2020/12/08 18:36:11;;;;;;;19.03;9.10;;;1.90;99.90;;;;;;4994053;28;20270;-75
2020/12/08 18:38:37;;;;;;;18.77;8.90;;;2.00;99.90;;;;;;4993499;28;20231;-71
2020/12/08 18:41:04;;;;;;;19.20;9.50;;;1.90;99.90;;;;;;4994396;28;20225;-71
2020/12/08 18:43:31;;;;;;;20.70;10.07;;;1.80;99.90;;;;;;4994045;28;20217;-67
2020/12/08 18:45:57;;;;;;;21.40;10.07;;;1.70;99.90;;;;;;4994171;28;20210;-71
2020/12/08 18:48:23;;;;;;;22.27;9.67;;;1.60;99.90;;;;;;4994096;28;20245;-71
2020/12/08 18:50:49;;;;;;;18.30;8.47;;;1.60;99.90;;;;;;4994241;28;20202;-70
2020/12/08 18:53:16;;;;;;;18.13;9.23;;;1.50;99.90;;;;;;4994082;28;20210;-68
2020/12/08 18:55:43;;;;;;;20.87;9.03;;;1.50;99.90;;;;;;4993814;28;20292;-71
2020/12/08 18:58:10;;;;;;;19.97;9.07;;;1.40;99.90;;;;;;4993589;28;20207;-73
2020/12/08 19:00:36;;;;;;;17.67;9.13;;;1.40;99.90;;;;;;4993630;28;20573;-74
2020/12/08 19:03:02;;;;;;;17.57;9.10;;;1.20;99.90;;;;;;4993784;28;20207;-71
2020/12/08 19:05:29;;;;;;;18.43;8.87;;;1.20;99.90;;;;;;4992072;28;20210;-74
2020/12/08 19:07:56;;;;;;;20.03;9.70;;;1.40;99.90;;;;;;4992817;28;20206;-74
2020/12/08 19:10:24;;;;;;;18.00;9.23;;;1.40;99.90;;;;;;4992807;28;20217;-73
2020/12/08 19:12:52;;;;;;;19.63;9.77;;;1.40;99.90;;;;;;4992892;28;20213;-77
2020/12/08 19:15:21;;;;;;;19.20;9.67;;;1.40;99.90;;;;;;4992794;28;20238;-76
2020/12/08 19:17:47;;;;;;;19.30;9.53;;;1.50;99.90;;;;;;4993084;28;20292;-75
2020/12/08 19:20:15;;;;;;;22.70;10.50;;;1.40;99.90;;;;;;4993259;28;20581;-74
2020/12/08 19:22:41;;;;;;;20.60;10.03;;;1.50;99.90;;;;;;4993120;28;20213;-75
2020/12/08 19:25:08;;;;;;;20.27;10.37;;;1.50;99.90;;;;;;4992603;28;20218;-74
2020/12/08 19:27:35;;;;;;;18.53;9.87;;;1.40;99.90;;;;;;5010805;28;20219;-78
2020/12/08 19:30:01;;;;;;;23.37;10.07;;;1.30;99.90;;;;;;5012670;28;20230;-76
2020/12/08 19:32:28;;;;;;;24.40;10.83;;;1.40;99.90;;;;;;5012824;28;20228;-74
2020/12/08 19:34:54;;;;;;;21.70;10.67;;;1.30;99.90;;;;;;5012594;28;20568;-74
2020/12/08 19:37:20;;;;;;;23.30;10.47;;;1.40;99.90;;;;;;5012047;28;20232;-79
2020/12/08 19:39:47;;;;;;;24.10;11.30;;;1.30;99.90;;;;;;5007846;28;20704;-78
2020/12/08 19:42:16;;;;;;;19.77;10.47;;;1.30;99.90;;;;;;5002341;28;20602;-77
2020/12/08 19:44:44;;;;;;;26.63;12.50;;;1.30;99.90;;;;;;5003736;28;20572;-78
2020/12/08 19:47:11;;;;;;;29.30;11.53;;;1.40;99.90;;;;;;5006666;28;20234;-77
2020/12/08 19:49:38;;;;;;;22.77;10.47;;;1.40;99.90;;;;;;5002990;28;20225;-78
2020/12/08 19:52:06;;;;;;;18.20;9.67;;;1.40;99.90;;;;;;5001154;28;20716;-74
2020/12/08 19:54:33;;;;;;;22.27;10.40;;;1.30;99.90;;;;;;4996766;28;20709;-73
2020/12/08 19:56:59;;;;;;;24.50;11.40;;;1.30;99.90;;;;;;4997221;28;20202;-72
2020/12/08 19:59:25;;;;;;;22.40;10.87;;;1.40;99.90;;;;;;4996535;28;20701;-73
2020/12/08 20:01:51;;;;;;;21.40;10.27;;;1.30;99.90;;;;;;4996407;28;20207;-73
2020/12/08 20:04:17;;;;;;;25.03;11.40;;;1.30;99.90;;;;;;4996539;28;20210;-72
2020/12/08 20:06:45;;;;;;;24.90;10.07;;;1.40;99.90;;;;;;4997139;28;20206;-73
2020/12/08 20:09:12;;;;;;;19.03;10.70;;;1.20;99.90;;;;;;4996723;28;20230;-72
2020/12/08 20:11:42;;;;;;;23.77;10.77;;;1.20;99.90;;;;;;4996865;28;20210;-73
2020/12/08 20:14:08;;;;;;;19.87;9.73;;;1.30;99.90;;;;;;4996351;28;20214;-73
2020/12/08 20:16:38;;;;;;;21.10;10.10;;;1.30;99.90;;;;;;4996698;28;20558;-72
2020/12/08 20:19:04;;;;;;;26.10;10.77;;;1.40;99.90;;;;;;4996373;28;20721;-73
2020/12/08 20:21:30;;;;;;;30.53;10.80;;;1.30;99.90;;;;;;4996605;28;20206;-73
2020/12/08 20:23:57;;;;;;;24.53;10.53;;;1.30;99.90;;;;;;4996524;28;20206;-72
2020/12/08 20:26:23;;;;;;;24.03;10.93;;;1.30;99.90;;;;;;4996414;28;20210;-73
2020/12/08 20:28:50;;;;;;;18.43;9.60;;;1.20;99.90;;;;;;4996602;28;20222;-73
2020/12/08 20:31:16;;;;;;;20.97;9.97;;;1.20;99.90;;;;;;4996421;28;20206;-72
2020/12/08 20:33:42;;;;;;;21.03;10.73;;;1.10;99.90;;;;;;4995577;28;20677;-72
2020/12/08 20:36:08;;;;;;;18.23;9.77;;;1.20;99.90;;;;;;4996128;28;20241;-73
2020/12/08 20:38:34;;;;;;;21.37;8.83;;;1.20;99.90;;;;;;4996195;28;20235;-74
2020/12/08 20:41:01;;;;;;;20.07;10.03;;;1.20;99.90;;;;;;5007459;28;20661;-71
2020/12/08 20:43:28;;;;;;;18.47;10.30;;;1.30;99.90;;;;;;5015187;28;20699;-73
2020/12/08 20:45:54;;;;;;;17.50;8.87;;;1.20;99.90;;;;;;5015592;28;20218;-71
2020/12/08 20:48:21;;;;;;;20.73;10.00;;;1.20;99.90;;;;;;5015179;28;20592;-73
2020/12/08 20:50:48;;;;;;;28.90;11.17;;;1.20;99.90;;;;;;5015416;28;20206;-73
2020/12/08 20:53:14;;;;;;;20.80;9.87;;;1.30;99.90;;;;;;5015376;28;20209;-73
2020/12/08 20:55:40;;;;;;;19.07;9.17;;;1.30;99.90;;;;;;5015255;28;20244;-73
2020/12/08 20:58:08;;;;;;;20.27;10.33;;;1.30;99.90;;;;;;5015429;28;20678;-74
2020/12/08 21:00:35;;;;;;;21.77;9.50;;;1.30;99.90;;;;;;5015421;28;20297;-73
2020/12/08 21:03:04;;;;;;;19.80;9.93;;;1.30;99.90;;;;;;5014241;28;20229;-71
2020/12/08 21:05:30;;;;;;;18.43;9.90;;;1.40;99.90;;;;;;5015363;28;20233;-73
2020/12/08 21:07:56;;;;;;;18.60;9.50;;;1.50;99.90;;;;;;5015226;28;20218;-72
2020/12/08 21:10:23;;;;;;;21.80;10.83;;;1.40;99.90;;;;;;5015457;28;20212;-72
2020/12/08 21:12:51;;;;;;;24.67;10.60;;;1.40;99.90;;;;;;5014999;28;20235;-73
2020/12/08 21:15:18;;;;;;;22.47;8.83;;;1.40;99.90;;;;;;5014797;28;20233;-72
2020/12/08 21:17:44;;;;;;;19.10;8.47;;;1.30;99.90;;;;;;5015106;28;20210;-72
2020/12/08 21:20:10;;;;;;;24.43;10.27;;;1.30;99.90;;;;;;5015155;28;20222;-72
2020/12/08 21:22:37;;;;;;;20.60;9.60;;;1.30;99.90;;;;;;5015035;28;20213;-74
2020/12/08 21:25:04;;;;;;;19.83;10.00;;;1.30;99.90;;;;;;5014726;28;20688;-72
2020/12/08 21:27:32;;;;;;;28.80;11.30;;;1.40;99.90;;;;;;5014618;28;20202;-73
2020/12/08 21:29:59;;;;;;;26.20;11.23;;;1.30;99.90;;;;;;5014695;28;20624;-73
2020/12/08 21:32:26;;;;;;;29.37;11.90;;;1.40;99.90;;;;;;5015433;28;20209;-72
2020/12/08 21:34:52;;;;;;;27.93;11.80;;;1.30;99.90;;;;;;5014346;28;20233;-72
2020/12/08 21:37:18;;;;;;;29.03;11.07;;;1.30;99.90;;;;;;5014432;28;20232;-71
2020/12/08 21:39:44;;;;;;;24.20;11.07;;;1.40;99.90;;;;;;5014371;28;20609;-72
2020/12/08 21:42:11;;;;;;;24.23;11.03;;;1.30;99.90;;;;;;5014343;28;20220;-72
2020/12/08 21:44:37;;;;;;;22.83;11.40;;;1.40;99.90;;;;;;5014373;28;20217;-73
2020/12/08 21:47:03;;;;;;;25.13;10.37;;;1.40;99.90;;;;;;5014342;28;20213;-73
2020/12/08 21:49:30;;;;;;;19.83;10.03;;;1.30;99.90;;;;;;5003058;28;20234;-71
2020/12/08 21:51:57;;;;;;;16.30;9.10;;;1.40;99.90;;;;;;4994808;28;20281;-72
2020/12/08 21:54:23;;;;;;;23.10;10.20;;;1.30;99.90;;;;;;4994604;28;20217;-72
2020/12/08 21:56:49;;;;;;;20.30;8.83;;;1.30;99.90;;;;;;4994901;28;20210;-73
2020/12/08 21:59:15;;;;;;;24.83;9.23;;;1.30;99.90;;;;;;4994046;28;20227;-72
2020/12/08 22:01:42;;;;;;;19.30;9.10;;;1.30;99.90;;;;;;4994339;28;20214;-72
2020/12/08 22:04:08;;;;;;;19.83;8.47;;;1.20;99.90;;;;;;4994523;28;20665;-72
2020/12/08 22:06:36;;;;;;;20.57;8.80;;;1.20;99.90;;;;;;4994908;28;20214;-74
2020/12/08 22:09:04;;;;;;;20.93;8.87;;;1.20;99.90;;;;;;4994247;28;20230;-74
2020/12/08 22:11:30;;;;;;;17.93;8.70;;;1.20;99.90;;;;;;4994112;28;20211;-72
2020/12/08 22:13:56;;;;;;;19.30;8.37;;;1.30;99.90;;;;;;4993290;28;20206;-73
2020/12/08 22:16:22;;;;;;;21.07;9.63;;;1.30;99.90;;;;;;4994163;28;20241;-73
2020/12/08 22:18:49;;;;;;;19.93;9.30;;;1.40;99.90;;;;;;4994420;28;20230;-72